Time;durP1;ratioP1;P1;durP2;ratioP2;P2;SDS_P1;SDS_P2;PMS_P1;PMS_P2;Temp;Humidity;BMP_temperature;BMP_pressure;BME280_temperature;BME280_humidity;BME280_pressure;Samples;Min_cycle;Max_cycle;Signal;HPM_P1;HPM_P2
2023/01/02 00:00:11;;;;;;;8.13;1.90;;;15.70;67.20;;;;;;5029311;28;20040;-67
2023/01/02 00:02:37;;;;;;;4.78;1.50;;;15.80;66.80;;;;;;5032520;28;20128;-66
2023/01/02 00:05:03;;;;;;;7.65;1.95;;;16.00;65.80;;;;;;5032713;28;20486;-67
2023/01/02 00:07:29;;;;;;;10.02;1.90;;;16.00;65.20;;;;;;5030443;28;20033;-66
2023/01/02 00:09:55;;;;;;;7.10;1.80;;;16.30;65.00;;;;;;5030510;28;20041;-66
2023/01/02 00:12:20;;;;;;;5.60;1.98;;;16.00;65.20;;;;;;5030579;28;20037;-67
2023/01/02 00:14:46;;;;;;;4.80;1.88;;;16.00;64.60;;;;;;5029408;28;20018;-66
2023/01/02 00:17:11;;;;;;;7.68;1.90;;;16.10;64.90;;;;;;5030629;28;20097;-67
2023/01/02 00:19:37;;;;;;;6.43;1.60;;;16.00;66.10;;;;;;5028537;28;20034;-66
2023/01/02 00:22:02;;;;;;;6.97;1.83;;;15.80;66.20;;;;;;5026303;28;20030;-67
2023/01/02 00:24:28;;;;;;;6.32;1.80;;;15.60;66.00;;;;;;5031830;28;20331;-66
2023/01/02 00:26:53;;;;;;;9.32;1.88;;;15.80;66.30;;;;;;5029600;28;20022;-66
2023/01/02 00:29:19;;;;;;;5.55;2.10;;;15.60;66.20;;;;;;5027521;28;20045;-66
2023/01/02 00:31:45;;;;;;;8.48;1.95;;;15.60;66.90;;;;;;5032470;28;20437;-66
2023/01/02 00:34:10;;;;;;;6.68;2.53;;;15.40;67.10;;;;;;5032685;28;20341;-67
2023/01/02 00:36:36;;;;;;;5.00;1.50;;;15.40;66.80;;;;;;5030755;28;20033;-66
2023/01/02 00:39:01;;;;;;;5.03;1.65;;;15.40;67.60;;;;;;5030034;28;20075;-66
2023/01/02 00:41:27;;;;;;;5.35;1.58;;;15.30;67.50;;;;;;5029836;28;20040;-67
2023/01/02 00:43:52;;;;;;;5.75;1.55;;;15.00;69.00;;;;;;5028955;28;20299;-67
2023/01/02 00:46:18;;;;;;;5.82;1.55;;;14.80;69.90;;;;;;5031461;28;20037;-67
2023/01/02 00:48:43;;;;;;;4.82;1.38;;;14.60;69.80;;;;;;5030286;28;20128;-66
2023/01/02 00:51:09;;;;;;;4.15;1.48;;;14.70;69.40;;;;;;5028245;28;20026;-66
2023/01/02 00:53:35;;;;;;;6.07;1.90;;;14.90;69.30;;;;;;5036283;28;20068;-66
2023/01/02 00:56:00;;;;;;;6.68;1.63;;;14.90;69.20;;;;;;5030615;28;20029;-66
2023/01/02 00:58:26;;;;;;;4.70;1.80;;;14.90;68.90;;;;;;5031328;28;20044;-67
2023/01/02 01:00:52;;;;;;;6.88;1.55;;;14.90;68.90;;;;;;5034684;28;20061;-67
2023/01/02 01:03:17;;;;;;;5.47;1.90;;;14.90;68.90;;;;;;5029645;28;20025;-67
2023/01/02 01:05:43;;;;;;;5.60;1.58;;;15.00;68.90;;;;;;5032258;28;20045;-66
2023/01/02 01:08:08;;;;;;;6.50;1.60;;;15.00;68.40;;;;;;5037733;28;20152;-67
2023/01/02 01:10:35;;;;;;;5.85;1.30;;;15.00;68.20;;;;;;5031539;28;20034;-67
2023/01/02 01:13:01;;;;;;;8.45;1.52;;;15.00;68.50;;;;;;5035769;28;20108;-67
2023/01/02 01:15:27;;;;;;;2.97;1.10;;;15.00;68.60;;;;;;5035309;28;20083;-66
2023/01/02 01:17:53;;;;;;;4.22;1.60;;;15.10;68.20;;;;;;5035319;28;20026;-67
2023/01/02 01:20:18;;;;;;;4.65;1.50;;;15.00;68.50;;;;;;5032282;28;20025;-65
2023/01/02 01:22:44;;;;;;;4.03;1.88;;;14.80;69.20;;;;;;5034546;28;20112;-67
2023/01/02 01:25:09;;;;;;;4.05;1.35;;;14.60;69.10;;;;;;5034709;28;20087;-67
2023/01/02 01:27:35;;;;;;;7.38;2.17;;;14.60;70.10;;;;;;5036264;28;20033;-67
2023/01/02 01:30:02;;;;;;;4.25;1.77;;;14.20;70.50;;;;;;5034947;28;20026;-67
2023/01/02 01:32:28;;;;;;;2.65;1.10;;;14.30;69.80;;;;;;5033411;28;20370;-67
2023/01/02 01:34:54;;;;;;;4.13;1.10;;;14.20;71.00;;;;;;5032154;28;20150;-67
2023/01/02 01:37:19;;;;;;;3.65;1.20;;;14.30;69.90;;;;;;5034508;28;20120;-68
2023/01/02 01:39:45;;;;;;;4.00;1.42;;;14.20;70.80;;;;;;5033942;28;20026;-67
2023/01/02 01:42:12;;;;;;;6.38;1.27;;;14.20;70.30;;;;;;5035122;28;20032;-66
2023/01/02 01:44:48;;;;;;;3.83;1.20;;;14.20;70.30;;;;;;5031321;28;20025;-66
2023/01/02 01:47:22;;;;;;;2.55;1.00;;;14.60;69.30;;;;;;5028572;28;20033;-64
2023/01/02 01:49:52;;;;;;;3.17;1.00;;;14.60;69.20;;;;;;5034276;28;20025;-66
2023/01/02 01:52:24;;;;;;;4.65;1.52;;;14.50;69.60;;;;;;5035701;28;20022;-65
2023/01/02 01:54:57;;;;;;;4.82;1.40;;;14.50;69.30;;;;;;5035730;28;20052;-65
2023/01/02 01:57:30;;;;;;;3.22;1.30;;;14.40;70.90;;;;;;5036565;28;20044;-67
2023/01/02 01:59:58;;;;;;;3.47;1.23;;;14.20;70.10;;;;;;5034780;28;20389;-67
2023/01/02 02:02:30;;;;;;;5.47;1.30;;;14.20;69.90;;;;;;5034353;28;20021;-67
2023/01/02 02:05:00;;;;;;;4.13;1.40;;;14.40;69.60;;;;;;5032309;28;20055;-67
2023/01/02 02:07:27;;;;;;;3.65;0.90;;;14.70;68.30;;;;;;5036116;28;20434;-67
2023/01/02 02:09:59;;;;;;;2.20;1.05;;;14.70;68.40;;;;;;5034750;28;20029;-67
2023/01/02 02:12:25;;;;;;;2.80;1.50;;;14.60;69.20;;;;;;5035257;28;20025;-67
2023/01/02 02:14:50;;;;;;;4.28;1.58;;;14.30;70.10;;;;;;5033387;28;20128;-67
2023/01/02 02:17:25;;;;;;;3.40;1.15;;;14.50;69.60;;;;;;5035146;28;20108;-66
2023/01/02 02:20:09;;;;;;;4.97;1.40;;;14.50;69.20;;;;;;5030600;28;20292;-66
2023/01/02 02:22:37;;;;;;;2.53;0.90;;;14.40;70.70;;;;;;5032079;28;20033;-67
2023/01/02 02:25:43;;;;;;;3.75;1.48;;;14.20;69.80;;;;;;5031915;28;20443;-66
2023/01/02 02:28:15;;;;;;;5.28;1.30;;;14.40;69.20;;;;;;5020738;28;20029;-67
2023/01/02 02:30:56;;;;;;;2.42;1.20;;;14.50;69.10;;;;;;5035425;28;20025;-67
2023/01/02 02:33:45;;;;;;;2.20;1.00;;;14.50;68.70;;;;;;5027360;28;20022;-69
2023/01/02 02:36:19;;;;;;;1.67;0.90;;;14.60;68.70;;;;;;5020795;28;20022;-67
2023/01/02 02:39:20;;;;;;;4.03;1.17;;;14.50;68.80;;;;;;5023536;28;20025;-67
2023/01/02 02:41:58;;;;;;;3.47;1.02;;;14.50;68.90;;;;;;5023629;28;20034;-66
2023/01/02 02:44:53;;;;;;;4.85;1.10;;;14.70;68.10;;;;;;5020629;28;20105;-67
2023/01/02 02:47:31;;;;;;;3.00;1.10;;;14.80;67.70;;;;;;5021465;28;20052;-67
2023/01/02 02:50:10;;;;;;;2.42;1.00;;;14.80;68.00;;;;;;5022854;28;20026;-68
2023/01/02 02:52:56;;;;;;;4.28;1.50;;;14.60;68.50;;;;;;5024125;28;20472;-67
2023/01/02 02:55:28;;;;;;;2.40;0.98;;;14.40;68.80;;;;;;5023596;28;20032;-67
2023/01/02 02:57:55;;;;;;;2.47;1.08;;;14.50;68.90;;;;;;5027346;28;20417;-67
2023/01/02 03:00:22;;;;;;;2.55;1.10;;;14.60;68.20;;;;;;5033081;28;20358;-67
2023/01/02 03:02:49;;;;;;;2.63;1.00;;;14.60;68.70;;;;;;5029962;28;20124;-67
2023/01/02 03:05:24;;;;;;;2.50;1.08;;;14.50;69.10;;;;;;5033235;28;20354;-67
2023/01/02 03:08:00;;;;;;;4.50;1.02;;;14.50;68.60;;;;;;5026813;28;20025;-68
2023/01/02 03:10:37;;;;;;;2.53;1.10;;;14.40;69.70;;;;;;5032783;28;20355;-67
2023/01/02 03:13:21;;;;;;;3.17;1.20;;;14.50;68.60;;;;;;5033962;28;20431;-67
2023/01/02 03:16:04;;;;;;;2.60;1.30;;;14.20;71.20;;;;;;5036281;28;20112;-67
2023/01/02 03:18:48;;;;;;;5.95;1.20;;;14.10;69.60;;;;;;5036462;28;20108;-67
2023/01/02 03:21:26;;;;;;;2.95;1.25;;;14.60;68.30;;;;;;5035700;28;20025;-67
2023/01/02 03:23:54;;;;;;;4.70;0.88;;;14.90;67.80;;;;;;5036663;28;20087;-67
2023/01/02 03:26:25;;;;;;;2.20;0.80;;;14.90;67.60;;;;;;5036770;28;20133;-67
2023/01/02 03:28:58;;;;;;;2.63;1.00;;;14.90;67.80;;;;;;5035730;28;20037;-67
2023/01/02 03:31:29;;;;;;;2.80;1.00;;;14.80;67.70;;;;;;5034746;28;20029;-67
2023/01/02 03:34:03;;;;;;;3.60;1.17;;;14.80;67.90;;;;;;5031872;28;20025;-67
2023/01/02 03:36:32;;;;;;;3.28;1.10;;;14.80;68.00;;;;;;5032792;28;20037;-67
2023/01/02 03:39:19;;;;;;;4.45;1.20;;;14.50;69.00;;;;;;5033022;28;20029;-67
2023/01/02 03:41:57;;;;;;;4.28;1.40;;;14.50;68.70;;;;;;5037657;28;20034;-67
2023/01/02 03:44:28;;;;;;;4.05;1.38;;;14.20;70.40;;;;;;5034918;28;20032;-67
2023/01/02 03:47:31;;;;;;;2.92;1.13;;;14.10;69.90;;;;;;5036058;28;20036;-67
2023/01/02 03:50:00;;;;;;;4.50;1.40;;;14.20;69.40;;;;;;5031827;28;20030;-67
2023/01/02 03:52:26;;;;;;;6.47;1.35;;;14.40;68.60;;;;;;5037350;28;20022;-67
2023/01/02 03:54:53;;;;;;;5.70;1.50;;;14.40;68.30;;;;;;5037962;28;20438;-67
2023/01/02 03:57:37;;;;;;;4.43;1.17;;;14.70;67.40;;;;;;5030898;28;20411;-67
2023/01/02 04:00:17;;;;;;;3.78;1.15;;;14.90;67.40;;;;;;5036545;28;20437;-67
2023/01/02 04:03:23;;;;;;;5.50;1.30;;;14.80;67.50;;;;;;5028432;28;20075;-68
2023/01/02 04:06:00;;;;;;;6.07;1.30;;;14.70;67.90;;;;;;5034105;28;20039;-67
2023/01/02 04:08:39;;;;;;;7.85;1.58;;;14.80;67.50;;;;;;5033603;28;20032;-67
2023/01/02 04:11:07;;;;;;;3.50;1.25;;;14.60;67.80;;;;;;5029112;28;20033;-67
2023/01/02 04:13:38;;;;;;;4.88;1.30;;;14.50;68.10;;;;;;5035377;28;20436;-67
2023/01/02 04:16:08;;;;;;;4.35;1.27;;;14.40;68.20;;;;;;5045935;28;20053;-67
2023/01/02 04:18:40;;;;;;;4.45;1.15;;;14.50;67.40;;;;;;5026440;28;20057;-67
2023/01/02 04:21:14;;;;;;;4.32;1.20;;;14.60;67.50;;;;;;5032154;28;20029;-67
2023/01/02 04:23:45;;;;;;;5.10;1.50;;;14.50;67.40;;;;;;5031204;28;20029;-67
2023/01/02 04:26:25;;;;;;;4.43;1.27;;;14.40;68.30;;;;;;5035702;28;20041;-67
2023/01/02 04:28:51;;;;;;;4.40;1.40;;;14.40;67.70;;;;;;5035803;28;20033;-67
2023/01/02 04:31:38;;;;;;;4.07;1.20;;;14.50;67.30;;;;;;5037487;28;20030;-67
2023/01/02 04:34:06;;;;;;;3.95;1.30;;;14.60;66.80;;;;;;5037154;28;20040;-67
2023/01/02 04:36:37;;;;;;;6.00;1.77;;;14.60;66.80;;;;;;5034921;28;20033;-69
2023/01/02 04:39:02;;;;;;;5.10;1.65;;;14.70;66.50;;;;;;5033092;28;20030;-66
2023/01/02 04:41:28;;;;;;;5.22;1.40;;;14.70;66.20;;;;;;5035064;28;20029;-66
2023/01/02 04:43:55;;;;;;;8.30;3.50;;;14.60;66.60;;;;;;5035460;28;20326;-66
2023/01/02 04:46:24;;;;;;;11.48;5.18;;;14.60;66.80;;;;;;5032951;28;20029;-66
2023/01/02 04:48:50;;;;;;;3.35;1.25;;;14.60;66.30;;;;;;5033692;28;20476;-65
2023/01/02 04:51:16;;;;;;;12.65;5.45;;;14.90;65.60;;;;;;5035523;28;20029;-68
2023/01/02 04:53:42;;;;;;;7.10;2.95;;;15.00;64.90;;;;;;5036915;28;20076;-67
2023/01/02 04:56:07;;;;;;;5.53;1.48;;;15.10;65.00;;;;;;5036881;28;20022;-67
2023/01/02 04:58:33;;;;;;;6.53;1.63;;;15.00;64.80;;;;;;5037553;28;20362;-67
2023/01/02 05:00:59;;;;;;;4.47;1.30;;;14.90;65.00;;;;;;5036489;28;20022;-67
2023/01/02 05:03:27;;;;;;;12.27;4.32;;;14.90;64.90;;;;;;5037567;28;20078;-68
2023/01/02 05:06:00;;;;;;;5.65;1.67;;;15.10;64.70;;;;;;5035550;28;20068;-67
2023/01/02 05:08:27;;;;;;;9.23;3.55;;;15.00;65.00;;;;;;5036663;28;20056;-67
2023/01/02 05:10:52;;;;;;;10.95;5.50;;;14.90;64.60;;;;;;5035696;28;20457;-68
2023/01/02 05:13:18;;;;;;;6.82;2.85;;;14.90;65.60;;;;;;5036951;28;20097;-68
2023/01/02 05:15:43;;;;;;;4.88;1.40;;;14.80;65.90;;;;;;5029318;28;20018;-67
2023/01/02 05:18:09;;;;;;;4.15;1.42;;;14.60;65.70;;;;;;5024049;28;20086;-67
2023/01/02 05:20:34;;;;;;;7.20;2.00;;;14.80;65.10;;;;;;5030872;28;20068;-67
2023/01/02 05:25:44;;;;;;;7.78;1.92;;;14.90;64.70;;;;;;5032908;28;20061;-68
2023/01/02 05:28:09;;;;;;;5.50;1.52;;;14.90;64.50;;;;;;5026948;28;20029;-67
2023/01/02 05:30:37;;;;;;;4.90;1.67;;;14.90;64.50;;;;;;5034306;28;20033;-67
2023/01/02 05:33:03;;;;;;;6.15;1.60;;;14.90;64.70;;;;;;5036361;28;20424;-67
2023/01/02 05:35:28;;;;;;;4.05;1.45;;;14.80;65.10;;;;;;5032761;28;20034;-67
2023/01/02 05:37:54;;;;;;;5.35;1.48;;;14.80;64.70;;;;;;5033485;28;20480;-68
2023/01/02 05:40:19;;;;;;;6.40;1.40;;;14.80;64.90;;;;;;5033537;28;20026;-67
2023/01/02 05:42:45;;;;;;;5.22;1.30;;;14.80;64.50;;;;;;5034764;28;20116;-67
2023/01/02 05:45:10;;;;;;;4.85;1.30;;;14.80;64.70;;;;;;5033778;28;20468;-67
2023/01/02 05:47:36;;;;;;;8.00;1.70;;;14.70;64.90;;;;;;5031530;28;20034;-67
2023/01/02 05:50:01;;;;;;;4.03;1.33;;;14.60;65.20;;;;;;5028552;28;20428;-67
2023/01/02 05:52:30;;;;;;;4.75;1.25;;;14.40;66.60;;;;;;5034929;28;20033;-67
2023/01/02 05:54:55;;;;;;;5.72;1.50;;;14.40;65.60;;;;;;5033435;28;20029;-67
2023/01/02 05:57:21;;;;;;;5.35;1.52;;;14.50;65.20;;;;;;5035834;28;20029;-67
2023/01/02 05:59:47;;;;;;;4.47;1.55;;;14.40;67.00;;;;;;5032302;28;20064;-67
2023/01/02 06:02:12;;;;;;;7.15;1.40;;;14.40;65.50;;;;;;5035258;28;20041;-68
2023/01/02 06:04:38;;;;;;;7.03;1.70;;;14.50;65.40;;;;;;5029481;28;20464;-67
2023/01/02 06:07:03;;;;;;;6.43;1.50;;;14.40;65.30;;;;;;5031103;28;20605;-67
2023/01/02 06:09:29;;;;;;;7.10;1.75;;;14.60;64.90;;;;;;5027020;28;20030;-67
2023/01/02 06:11:55;;;;;;;3.95;1.20;;;14.70;63.70;;;;;;5033471;28;20022;-67
2023/01/02 06:14:22;;;;;;;4.50;1.33;;;14.80;64.10;;;;;;5034028;28;20022;-68
2023/01/02 06:16:48;;;;;;;5.20;1.65;;;14.90;63.40;;;;;;5030309;28;20028;-67
2023/01/02 06:19:13;;;;;;;7.43;2.30;;;14.90;63.30;;;;;;5048034;28;20326;-67
2023/01/02 06:21:39;;;;;;;4.50;1.35;;;14.90;63.70;;;;;;5022200;28;20084;-66
2023/01/02 06:24:05;;;;;;;5.00;1.40;;;14.70;64.70;;;;;;5031319;28;20115;-65
2023/01/02 06:26:30;;;;;;;5.70;1.40;;;14.60;64.70;;;;;;5033163;28;20121;-65
2023/01/02 06:28:57;;;;;;;5.50;1.40;;;14.60;64.20;;;;;;5034809;28;20092;-65
2023/01/02 06:31:28;;;;;;;7.97;1.40;;;14.70;64.00;;;;;;5024226;28;20029;-66
2023/01/02 06:33:55;;;;;;;5.53;1.42;;;14.80;63.60;;;;;;5032030;28;20022;-66
2023/01/02 06:36:21;;;;;;;6.32;1.50;;;14.70;64.20;;;;;;5028280;28;20030;-65
2023/01/02 06:38:46;;;;;;;5.72;1.40;;;14.50;65.90;;;;;;5029795;28;20022;-66
2023/01/02 06:41:13;;;;;;;4.20;1.40;;;14.60;64.20;;;;;;5026451;28;20468;-67
2023/01/02 06:43:49;;;;;;;8.88;2.58;;;14.90;63.20;;;;;;5022595;28;20030;-67
2023/01/02 06:46:20;;;;;;;3.67;1.40;;;14.90;63.50;;;;;;5030207;28;20316;-67
2023/01/02 06:48:47;;;;;;;3.17;1.35;;;14.70;63.70;;;;;;5027328;28;20018;-67
2023/01/02 06:51:17;;;;;;;4.75;1.33;;;14.60;64.00;;;;;;5029475;28;20314;-67
2023/01/02 06:53:43;;;;;;;4.40;1.30;;;14.60;63.90;;;;;;5031348;28;20028;-67
2023/01/02 06:56:15;;;;;;;4.90;1.40;;;14.70;63.20;;;;;;5033103;28;20486;-67
2023/01/02 06:58:41;;;;;;;4.70;1.65;;;14.80;63.10;;;;;;5036764;28;20033;-67
2023/01/02 07:01:19;;;;;;;3.78;1.25;;;14.80;62.90;;;;;;5028969;28;20025;-67
2023/01/02 07:03:44;;;;;;;6.72;1.20;;;14.90;62.80;;;;;;5032080;28;20593;-67
2023/01/02 07:06:16;;;;;;;6.65;1.48;;;14.80;63.40;;;;;;5026235;28;20017;-65
2023/01/02 07:08:42;;;;;;;5.07;1.30;;;14.80;63.60;;;;;;5030972;28;20030;-66
2023/01/02 07:11:10;;;;;;;5.68;1.25;;;14.70;63.30;;;;;;5026424;28;20018;-67
2023/01/02 07:13:37;;;;;;;4.22;1.92;;;14.70;63.70;;;;;;5031885;28;20025;-67
2023/01/02 07:16:05;;;;;;;3.10;1.10;;;14.60;63.90;;;;;;5031649;28;20029;-66
2023/01/02 07:18:31;;;;;;;7.20;1.73;;;14.50;64.20;;;;;;5033938;28;20033;-67
2023/01/02 07:20:57;;;;;;;3.65;1.35;;;14.50;64.40;;;;;;5026531;28;20017;-67
2023/01/02 07:23:23;;;;;;;5.75;1.38;;;14.50;64.20;;;;;;5032747;28;20107;-67
2023/01/02 07:25:56;;;;;;;5.88;1.70;;;14.60;64.00;;;;;;5033008;28;20045;-68
2023/01/02 07:28:22;;;;;;;3.53;1.30;;;14.70;64.00;;;;;;5031427;28;20033;-66
2023/01/02 07:30:48;;;;;;;3.20;1.17;;;14.70;64.00;;;;;;5030104;28;20084;-66
2023/01/02 07:33:14;;;;;;;5.45;2.00;;;14.50;64.20;;;;;;5031725;28;20026;-66
2023/01/02 07:35:40;;;;;;;5.70;2.33;;;14.60;63.90;;;;;;5032355;28;20449;-65
2023/01/02 07:38:06;;;;;;;4.53;1.65;;;14.60;64.10;;;;;;5033951;28;20164;-65
2023/01/02 07:40:32;;;;;;;3.05;1.10;;;14.60;63.80;;;;;;5029710;28;20033;-64
2023/01/02 07:43:05;;;;;;;5.78;1.70;;;14.50;64.40;;;;;;5028126;28;20116;-65
2023/01/02 07:45:32;;;;;;;7.22;1.30;;;14.50;64.00;;;;;;5026057;28;20444;-67
2023/01/02 07:47:58;;;;;;;5.43;2.20;;;14.60;64.10;;;;;;5034225;28;20029;-66
2023/01/02 07:50:24;;;;;;;4.55;1.55;;;14.60;63.60;;;;;;5032163;28;20322;-67
2023/01/02 07:52:49;;;;;;;4.20;1.30;;;14.60;63.30;;;;;;5033284;28;20038;-67
2023/01/02 07:55:15;;;;;;;5.50;1.45;;;14.60;63.10;;;;;;5034555;28;20036;-68
2023/01/02 07:57:40;;;;;;;5.50;1.35;;;14.50;64.80;;;;;;5034446;28;20026;-67
2023/01/02 08:00:07;;;;;;;4.72;1.50;;;14.40;63.90;;;;;;5027689;28;20037;-68
2023/01/02 08:02:32;;;;;;;4.40;1.83;;;14.30;65.10;;;;;;5031948;28;20037;-68
2023/01/02 08:04:58;;;;;;;7.53;2.63;;;14.00;66.90;;;;;;5034536;28;20481;-68
2023/01/02 08:07:23;;;;;;;6.38;2.15;;;13.80;68.10;;;;;;5032262;28;20091;-67
2023/01/02 08:09:49;;;;;;;6.97;1.98;;;13.70;66.90;;;;;;5035472;28;20022;-67
2023/01/02 08:12:14;;;;;;;4.13;1.67;;;13.70;67.40;;;;;;5034238;28;20034;-67
2023/01/02 08:14:40;;;;;;;6.97;2.17;;;13.70;65.90;;;;;;5031771;28;20308;-67
2023/01/02 08:17:05;;;;;;;6.00;1.38;;;13.70;68.50;;;;;;5035728;28;20466;-68
2023/01/02 08:19:31;;;;;;;4.97;1.60;;;13.30;72.70;;;;;;5034217;28;20033;-67
2023/01/02 08:21:56;;;;;;;4.72;1.52;;;12.90;74.10;;;;;;5031689;28;20414;-68
2023/01/02 08:24:22;;;;;;;5.05;1.58;;;12.90;68.60;;;;;;5032490;28;20060;-67
2023/01/02 08:26:48;;;;;;;9.05;3.88;;;13.10;71.20;;;;;;5028987;28;20455;-67
2023/01/02 08:29:13;;;;;;;8.38;3.53;;;12.90;73.90;;;;;;5016623;28;20064;-68
2023/01/02 08:31:39;;;;;;;8.43;2.95;;;12.70;74.10;;;;;;5017431;28;20067;-66
2023/01/02 08:34:04;;;;;;;7.68;2.85;;;12.70;74.90;;;;;;5033908;28;20034;-67
2023/01/02 08:36:30;;;;;;;6.57;2.85;;;12.60;74.80;;;;;;5035677;28;20100;-67
2023/01/02 08:38:55;;;;;;;5.53;2.42;;;12.50;74.80;;;;;;5034305;28;20352;-67
2023/01/02 08:41:31;;;;;;;6.53;2.13;;;12.50;75.90;;;;;;5034329;28;20033;-67
2023/01/02 08:43:57;;;;;;;5.10;2.03;;;12.50;75.70;;;;;;5018384;28;20025;-66
2023/01/02 08:46:23;;;;;;;6.90;2.20;;;12.60;75.30;;;;;;5022080;28;20548;-66
2023/01/02 08:48:48;;;;;;;8.10;2.45;;;12.60;76.30;;;;;;5030768;28;20048;-65
2023/01/02 08:51:14;;;;;;;6.93;2.33;;;12.50;76.60;;;;;;5021761;28;20059;-66
2023/01/02 08:53:39;;;;;;;5.80;2.42;;;12.40;77.10;;;;;;5013154;28;20053;-66
2023/01/02 08:56:26;;;;;;;7.63;2.72;;;12.40;77.20;;;;;;5020062;28;20131;-66
2023/01/02 08:58:55;;;;;;;8.80;2.35;;;12.40;77.70;;;;;;5014062;28;20040;-66
2023/01/02 09:01:23;;;;;;;4.90;2.08;;;12.30;78.20;;;;;;5012399;28;20038;-66
2023/01/02 09:03:50;;;;;;;6.47;2.13;;;12.30;77.90;;;;;;5020432;28;20025;-66
2023/01/02 09:06:16;;;;;;;5.30;2.25;;;12.20;77.80;;;;;;5012137;28;20037;-67
2023/01/02 09:08:42;;;;;;;9.93;3.10;;;12.20;77.20;;;;;;5011560;28;20034;-66
2023/01/02 09:11:17;;;;;;;6.75;3.13;;;12.10;79.60;;;;;;5015322;28;20030;-65
2023/01/02 09:13:43;;;;;;;8.60;3.10;;;12.10;81.10;;;;;;5028354;28;20030;-65
2023/01/02 09:16:10;;;;;;;7.53;3.70;;;12.00;81.00;;;;;;5027442;28;20069;-66
2023/01/02 09:18:38;;;;;;;8.25;3.70;;;12.10;81.40;;;;;;5024019;28;20116;-65
2023/01/02 09:21:06;;;;;;;7.75;3.25;;;12.00;83.00;;;;;;5030175;28;20044;-65
2023/01/02 09:23:32;;;;;;;6.45;2.80;;;12.00;83.60;;;;;;5023458;28;20030;-65
2023/01/02 09:26:01;;;;;;;5.68;2.03;;;11.90;82.70;;;;;;5019194;28;20689;-65
2023/01/02 09:28:29;;;;;;;5.82;2.00;;;11.90;83.00;;;;;;5028817;28;20028;-65
2023/01/02 09:30:54;;;;;;;6.63;2.00;;;11.80;85.30;;;;;;5027315;28;20029;-66
2023/01/02 09:33:21;;;;;;;5.45;2.42;;;11.70;85.90;;;;;;5026786;28;20030;-66
2023/01/02 09:35:46;;;;;;;6.80;2.53;;;11.80;85.90;;;;;;5026396;28;20030;-66
2023/01/02 09:38:12;;;;;;;5.20;2.30;;;11.90;85.60;;;;;;5031838;28;20025;-66
2023/01/02 09:40:49;;;;;;;7.80;3.15;;;12.10;83.00;;;;;;5035145;28;20030;-66
2023/01/02 09:43:19;;;;;;;6.72;2.63;;;12.30;80.70;;;;;;5022760;28;20381;-67
2023/01/02 09:45:45;;;;;;;5.63;2.40;;;12.40;82.60;;;;;;5022121;28;20025;-66
2023/01/02 09:48:17;;;;;;;7.70;3.05;;;12.50;82.50;;;;;;5029955;28;20057;-67
2023/01/02 09:50:46;;;;;;;9.55;3.55;;;12.70;82.50;;;;;;5011199;28;20059;-66
2023/01/02 09:53:13;;;;;;;12.05;4.22;;;12.90;82.70;;;;;;5027755;28;20024;-67
2023/01/02 09:56:06;;;;;;;15.43;8.18;;;13.00;82.70;;;;;;5026870;28;20034;-66
2023/01/02 09:58:57;;;;;;;12.48;5.75;;;13.00;82.50;;;;;;5019212;28;20495;-67
2023/01/02 10:01:48;;;;;;;16.35;7.28;;;12.90;84.50;;;;;;5021510;28;20030;-66
2023/01/02 10:04:41;;;;;;;17.23;7.63;;;12.70;85.10;;;;;;5027239;28;20029;-66
2023/01/02 10:07:51;;;;;;;17.52;7.25;;;12.70;84.20;;;;;;5027022;28;20061;-65
2023/01/02 10:10:42;;;;;;;16.05;6.47;;;12.80;84.70;;;;;;5031552;28;20104;-65
2023/01/02 10:13:29;;;;;;;8.07;3.80;;;13.00;82.20;;;;;;5023844;28;20422;-65
2023/01/02 10:15:59;;;;;;;6.38;2.20;;;13.20;74.20;;;;;;5019432;28;20029;-66
2023/01/02 10:18:52;;;;;;;6.57;1.77;;;13.60;71.10;;;;;;5034185;28;20017;-66
2023/01/02 10:21:24;;;;;;;5.75;1.65;;;14.00;68.80;;;;;;5028247;28;20399;-66
2023/01/02 10:23:59;;;;;;;6.63;1.70;;;14.40;66.40;;;;;;5024907;28;20045;-67
2023/01/02 10:26:31;;;;;;;6.80;2.08;;;14.80;65.80;;;;;;5022009;28;20041;-67
2023/01/02 10:29:43;;;;;;;5.90;1.65;;;15.20;66.00;;;;;;5030616;28;20018;-65
2023/01/02 10:32:22;;;;;;;8.02;1.88;;;15.50;63.20;;;;;;5023298;28;20069;-65
2023/01/02 10:35:02;;;;;;;6.78;2.00;;;15.90;61.20;;;;;;5030133;28;21681;-65
2023/01/02 10:37:28;;;;;;;8.00;1.80;;;16.20;61.30;;;;;;5022352;28;20103;-65
2023/01/02 10:39:54;;;;;;;9.68;2.20;;;16.20;60.40;;;;;;5028426;28;20048;-66
2023/01/02 10:42:20;;;;;;;8.93;2.30;;;16.20;60.40;;;;;;5031533;28;20033;-66
2023/01/02 10:44:46;;;;;;;6.50;2.22;;;16.20;59.50;;;;;;5032685;28;20112;-66
2023/01/02 10:47:35;;;;;;;5.95;2.03;;;16.10;60.30;;;;;;5031829;28;20129;-66
2023/01/02 10:50:05;;;;;;;7.78;2.60;;;15.80;60.10;;;;;;5026702;28;20025;-66
2023/01/02 10:52:32;;;;;;;7.93;2.53;;;15.50;60.80;;;;;;5029960;28;20404;-66
2023/01/02 10:54:58;;;;;;;10.40;1.95;;;15.30;61.00;;;;;;5024953;28;20025;-67
2023/01/02 10:57:44;;;;;;;11.48;2.50;;;15.30;61.00;;;;;;5028780;28;20025;-66
2023/01/02 11:00:30;;;;;;;7.75;2.10;;;15.30;61.30;;;;;;5028280;28;20143;-65
2023/01/02 11:03:16;;;;;;;11.63;2.70;;;15.40;61.10;;;;;;5028259;28;20040;-65
2023/01/02 11:05:48;;;;;;;12.60;2.90;;;15.40;61.60;;;;;;5027671;28;20083;-66
2023/01/02 11:08:16;;;;;;;8.68;3.65;;;15.40;63.20;;;;;;5028013;28;20076;-66
2023/01/02 11:10:42;;;;;;;7.57;2.30;;;15.80;62.90;;;;;;5028199;28;20040;-66
2023/01/02 11:13:11;;;;;;;11.23;2.60;;;16.20;61.90;;;;;;5027212;28;20032;-66
2023/01/02 11:15:52;;;;;;;10.85;2.47;;;16.40;61.60;;;;;;5028304;28;20021;-65
2023/01/02 11:18:39;;;;;;;7.93;2.30;;;16.50;61.80;;;;;;5030729;28;20029;-66
2023/01/02 11:21:06;;;;;;;10.23;2.88;;;16.60;61.40;;;;;;5023269;28;20091;-67
2023/01/02 11:23:38;;;;;;;11.05;3.20;;;16.60;61.30;;;;;;5030942;28;20030;-66
2023/01/02 11:26:09;;;;;;;12.73;2.30;;;16.50;61.40;;;;;;5033291;28;20072;-66
2023/01/02 11:28:38;;;;;;;10.05;2.55;;;16.30;62.60;;;;;;5033299;28;20295;-66
2023/01/02 11:31:09;;;;;;;9.30;2.63;;;16.40;62.80;;;;;;5029856;28;20026;-66
2023/01/02 11:33:36;;;;;;;11.20;2.47;;;16.40;62.70;;;;;;5030489;28;20022;-66
2023/01/02 11:36:14;;;;;;;10.18;2.55;;;16.40;62.40;;;;;;5035543;28;20069;-66
2023/01/02 11:39:00;;;;;;;10.82;3.00;;;16.70;62.60;;;;;;5035217;28;20112;-66
2023/01/02 11:44:51;;;;;;;10.98;2.67;;;16.50;62.00;;;;;;5037458;28;20028;-66
2023/01/02 11:47:19;;;;;;;8.40;2.85;;;16.40;62.30;;;;;;5026490;28;20033;-67
2023/01/02 11:49:48;;;;;;;13.55;4.03;;;16.20;62.80;;;;;;5027244;28;20323;-66
2023/01/02 11:52:25;;;;;;;14.50;3.50;;;16.00;63.90;;;;;;5035659;28;20022;-66
2023/01/02 11:55:11;;;;;;;11.23;3.05;;;15.90;64.90;;;;;;5038677;28;20083;-66
2023/01/02 11:57:55;;;;;;;15.38;3.20;;;15.90;63.80;;;;;;5037705;28;20112;-66
2023/01/02 12:00:24;;;;;;;13.87;4.23;;;15.80;65.00;;;;;;5036534;28;20037;-66
2023/01/02 12:02:52;;;;;;;12.98;3.90;;;16.00;64.80;;;;;;5027549;28;20018;-66
2023/01/02 12:06:02;;;;;;;19.70;6.38;;;16.10;63.90;;;;;;5026156;28;20053;-66
2023/01/02 12:08:58;;;;;;;11.48;2.85;;;16.30;64.60;;;;;;5022483;28;20427;-66
2023/01/02 12:11:49;;;;;;;22.50;6.45;;;16.40;64.20;;;;;;5038639;28;20025;-66
2023/01/02 12:14:17;;;;;;;16.38;4.22;;;16.40;65.00;;;;;;5037679;28;20025;-66
2023/01/02 12:17:03;;;;;;;19.13;4.20;;;16.60;64.40;;;;;;5038560;28;20040;-66
2023/01/02 12:19:31;;;;;;;17.63;5.03;;;16.60;65.20;;;;;;5033680;28;20446;-66
2023/01/02 12:22:33;;;;;;;21.02;5.20;;;16.90;64.40;;;;;;5036619;28;20496;-66
2023/01/02 12:25:26;;;;;;;18.85;4.80;;;17.20;64.50;;;;;;5037683;28;20128;-66
2023/01/02 12:28:17;;;;;;;18.40;6.35;;;17.50;62.90;;;;;;5037971;28;20042;-66
2023/01/02 12:31:20;;;;;;;12.90;4.13;;;17.20;64.00;;;;;;5037252;28;20028;-66
2023/01/02 12:34:07;;;;;;;19.23;5.65;;;17.20;64.10;;;;;;5037318;28;20319;-66
2023/01/02 12:36:57;;;;;;;13.77;3.72;;;17.00;64.60;;;;;;5035044;28;20036;-66
2023/01/02 12:39:56;;;;;;;18.25;5.00;;;16.90;65.40;;;;;;5018277;28;20120;-66
2023/01/02 12:42:51;;;;;;;12.68;3.20;;;16.90;65.10;;;;;;5037034;28;20037;-66
2023/01/02 12:45:36;;;;;;;18.52;6.07;;;16.70;65.40;;;;;;5030634;28;20030;-66
2023/01/02 12:48:05;;;;;;;11.82;3.17;;;17.00;66.00;;;;;;5036523;28;20021;-66
2023/01/02 12:50:56;;;;;;;16.38;3.13;;;17.50;65.60;;;;;;5035835;28;20033;-66
2023/01/02 12:54:03;;;;;;;17.63;4.53;;;17.40;65.70;;;;;;5036536;28;20025;-65
2023/01/02 12:56:31;;;;;;;16.00;3.95;;;17.20;65.90;;;;;;5030099;28;20029;-66
2023/01/02 12:59:31;;;;;;;34.47;12.13;;;17.00;66.00;;;;;;5037125;28;20025;-66
2023/01/02 13:02:10;;;;;;;15.88;4.97;;;16.80;66.30;;;;;;5034964;28;20322;-66
2023/01/02 13:04:48;;;;;;;26.00;7.38;;;16.20;67.50;;;;;;5022206;28;20030;-66
2023/01/02 13:07:25;;;;;;;17.73;3.92;;;15.80;68.10;;;;;;5037545;28;20108;-66
2023/01/02 13:09:52;;;;;;;16.73;4.40;;;15.60;68.30;;;;;;5035223;28;20056;-66
2023/01/02 13:12:21;;;;;;;21.17;6.13;;;15.50;68.10;;;;;;5037498;28;20025;-66
2023/01/02 13:15:11;;;;;;;22.73;5.93;;;15.30;68.80;;;;;;5036559;28;20032;-66